LIEO Airport Information

Runway Information
Runway 05 Length 8025 ft width 148 ft
Elevation 35 ft Threshold 805 ft Heading 53
Runway 23 Length 8025 ft Width 148 ft
Elevation 19 ft Threshold 495 ft Heading 233
Airport Frequencies
Type APP Name OLBIA RADA Frequency 125.95 MHZ
Type ATIS Name ATIS Frequency 113.9 MHZ
Type TWR Name OLBIA TWR Frequency 118.975 MHZ
Airport Navaids
Type VOR-DME Name Olbia Costa Smeralda Frequency 113900 KHZ
Type NDB Name Olbia Costa Smeralda Frequency 357 KHZ
Airport Weather Information & NOTAM
ADDS - METARS form results

(0415 UTC 18 January 2022)
Data provider http://aviationweather.gov/metar/data/
 
METAR text: LIEO 180350Z 24003KT CAVOK 02/01 Q1029
Conditions at: LIEO (OLBIA/COSTA SMER, IT) observed 0350 UTC 18 January 2022
Temperature: 2.0°C (36°F)
Dewpoint: 1.0°C (34°F) [RH = 93%]
Pressure (altimeter): 30.38 inches Hg (1029.0 mb)
Winds: from the WSW (240 degrees) at 3 MPH (3 knots; 1.5 m/s)
Visibility: 6 or more miles (10+ km)
Ceiling: ceiling and visibility are OK
Clouds: unknown
Weather: no significant weather observed at this time

METAR text: LIEO 180320Z VRB01KT CAVOK 02/02 Q1028
Conditions at: LIEO (OLBIA/COSTA SMER, IT) observed 0320 UTC 18 January 2022
Temperature: 2.0°C (36°F)
Dewpoint: 2.0°C (36°F) [RH = 100%]
Pressure (altimeter): 30.35 inches Hg (1028.0 mb)
Winds: variable direction winds at 1 MPH (1 knots; 0.5 m/s)
Visibility: 6 or more miles (10+ km)
Ceiling: ceiling and visibility are OK
Clouds: unknown
Weather: no significant weather observed at this time

Forecast for: LIEO (OLBIA/COSTA SMER, IT)
Text: TAF LIEO 172300Z 1800/1824 24010KT CAVOK
Forecast period: 0000 to 0800 UTC 18 January 2022
Forecast type: FROM: standard forecast or significant change
Winds: from the WSW (240 degrees) at 12 MPH (10 knots; 5.1 m/s)
Visibility: 6 or more miles (10+ km)
Ceiling: unknown
Clouds: missing
Weather: NSW  (no significant weather)
Text: BECMG 1808/1810 VRB05KT
Forecast period: 0800 UTC 18 January 2022 to 0000 UTC 19 January 2022
Forecast type: BECOMING: Conditions expected to become as follows by 1000 UTC 18 January 2022
Winds: variable direction winds at 6 MPH (5 knots; 2.6 m/s)
Visibility: 6 or more miles (10+ km)
Ceiling: unknown
Clouds: missing
Weather: NSW  (no significant weather)